createdAt,value
2018-03-17T00:00:13.045Z,94.56
2018-03-17T00:01:13.078Z,95.07
2018-03-17T00:02:12.879Z,94.51
2018-03-17T00:03:12.872Z,94.18
2018-03-17T00:04:12.720Z,94.08
2018-03-17T00:05:12.657Z,94.60
2018-03-17T00:06:12.542Z,94.70
2018-03-17T00:07:12.564Z,94.42
2018-03-17T00:08:12.392Z,93.94
2018-03-17T00:09:12.367Z,93.94
2018-03-17T00:10:12.213Z,94.18
2018-03-17T00:11:12.144Z,94.46
2018-03-17T00:12:12.059Z,95.17
2018-03-17T00:13:12.023Z,95.17
2018-03-17T00:14:11.875Z,94.27
2018-03-17T00:15:11.904Z,94.37
2018-03-17T00:16:11.745Z,94.65
2018-03-17T00:17:11.662Z,94.84
2018-03-17T00:18:11.558Z,94.74
2018-03-17T00:19:11.519Z,94.70
2018-03-17T00:20:11.385Z,94.56
2018-03-17T00:21:11.324Z,93.89
2018-03-17T00:22:11.248Z,94.74
2018-03-17T00:23:11.275Z,95.40
2018-03-17T00:24:11.037Z,95.03
2018-03-17T00:25:10.984Z,95.50
2018-03-17T00:26:10.869Z,94.65
2018-03-17T00:27:10.859Z,94.65
2018-03-17T00:28:10.732Z,94.93
2018-03-17T00:29:10.632Z,95.03
2018-03-17T00:30:10.527Z,95.03
2018-03-17T00:31:10.572Z,94.84
2018-03-17T00:32:10.383Z,95.03
2018-03-17T00:33:10.385Z,94.93
2018-03-17T00:34:10.219Z,95.50
2018-03-17T00:35:10.188Z,95.12
2018-03-17T00:36:10.046Z,95.21
2018-03-17T00:37:10.004Z,94.93
2018-03-17T00:38:09.868Z,95.03
2018-03-17T00:39:09.959Z,94.74
2018-03-17T00:40:09.696Z,94.46
2018-03-17T00:41:09.722Z,95.03
2018-03-17T00:42:09.539Z,95.03
2018-03-17T00:43:09.530Z,95.12
2018-03-17T00:44:09.385Z,95.31
2018-03-17T00:45:09.347Z,95.59
2018-03-17T00:46:09.197Z,95.21
2018-03-17T00:47:09.247Z,95.50
2018-03-17T00:48:09.033Z,95.59
2018-03-17T00:49:09.085Z,95.50
2018-03-17T00:50:08.861Z,95.50
2018-03-17T00:51:08.794Z,95.78
2018-03-17T00:52:08.813Z,95.78
2018-03-17T00:53:08.725Z,95.69
2018-03-17T00:54:08.547Z,95.69
2018-03-17T00:55:08.477Z,95.97
2018-03-17T00:56:08.367Z,95.69
2018-03-17T00:57:08.398Z,95.12
2018-03-17T00:58:08.204Z,95.69
2018-03-17T00:59:08.239Z,95.03
2018-03-17T01:00:08.029Z,95.03
2018-03-17T01:01:07.980Z,95.50
2018-03-17T01:02:07.858Z,95.69
2018-03-17T01:03:07.820Z,95.69
2018-03-17T01:04:07.696Z,95.78
2018-03-17T01:05:07.763Z,96.16
2018-03-17T01:06:07.532Z,95.78
2018-03-17T01:07:07.553Z,95.69
2018-03-17T01:08:07.361Z,95.69
2018-03-17T01:09:07.383Z,95.50
2018-03-17T01:10:07.188Z,95.12
2018-03-17T01:11:07.156Z,95.31
2018-03-17T01:12:07.075Z,95.59
2018-03-17T01:13:07.063Z,95.88
2018-03-17T01:14:06.874Z,95.69
2018-03-17T01:15:06.913Z,95.59
2018-03-17T01:16:06.688Z,95.59
2018-03-17T01:17:06.679Z,96.16
2018-03-17T01:18:06.522Z,95.88
2018-03-17T01:19:06.495Z,95.31
2018-03-17T01:20:06.386Z,95.50
2018-03-17T01:21:06.340Z,95.78
2018-03-17T01:22:06.192Z,95.69
2018-03-17T01:23:06.250Z,94.65
2018-03-17T01:24:06.018Z,95.12
2018-03-17T01:25:06.025Z,94.84
2018-03-17T01:26:05.899Z,94.65
2018-03-17T01:27:06.308Z,95.03
2018-03-17T01:28:05.722Z,95.78
2018-03-17T01:29:05.818Z,95.59
2018-03-17T01:30:05.523Z,95.69
2018-03-17T01:31:05.584Z,95.69
2018-03-17T01:32:05.345Z,95.69
2018-03-17T01:33:05.351Z,95.78
2018-03-17T01:34:05.190Z,95.78
2018-03-17T01:35:05.161Z,95.69
2018-03-17T01:36:05.049Z,95.40
2018-03-17T01:37:04.974Z,94.84
2018-03-17T01:38:04.848Z,95.12
2018-03-17T01:39:04.884Z,95.59
2018-03-17T01:40:04.679Z,95.50
2018-03-17T01:41:04.719Z,95.59
2018-03-17T01:42:04.634Z,95.59
2018-03-17T01:43:04.510Z,95.59
2018-03-17T01:44:04.344Z,95.69
2018-03-17T01:45:04.418Z,95.50
2018-03-17T01:46:04.212Z,95.03
2018-03-17T01:47:04.220Z,95.55
2018-03-17T01:48:04.020Z,95.78
2018-03-17T01:49:04.031Z,95.69
2018-03-17T01:50:03.840Z,95.40
2018-03-17T01:51:03.844Z,95.69
2018-03-17T01:52:03.701Z,95.40
2018-03-17T01:53:03.641Z,95.97
2018-03-17T01:54:03.519Z,95.69
2018-03-17T01:55:03.556Z,95.97
2018-03-17T01:56:03.352Z,95.88
2018-03-17T01:57:03.396Z,95.78
2018-03-17T01:58:03.182Z,95.69
2018-03-17T01:59:03.096Z,96.54
2018-03-17T02:00:03.017Z,96.45
2018-03-17T02:01:02.981Z,95.59
2018-03-17T02:02:02.906Z,95.69
2018-03-17T02:03:02.793Z,95.69
2018-03-17T02:04:02.673Z,95.40
2018-03-17T02:05:03.626Z,95.97
2018-03-17T02:06:02.498Z,95.59
2018-03-17T02:07:02.538Z,95.69
2018-03-17T02:08:02.333Z,95.21
2018-03-17T02:09:02.329Z,95.40
2018-03-17T02:10:02.165Z,95.69
2018-03-17T02:11:02.124Z,95.69
2018-03-17T02:12:02.004Z,95.55
2018-03-17T02:13:01.976Z,95.45
2018-03-17T02:14:01.830Z,96.02
2018-03-17T02:15:01.849Z,96.12
2018-03-17T02:16:01.669Z,96.35
2018-03-17T02:17:01.653Z,96.26
2018-03-17T02:18:01.514Z,96.54
2018-03-17T02:19:01.454Z,95.50
2018-03-17T02:20:01.327Z,95.83
2018-03-17T02:21:01.273Z,95.83
2018-03-17T02:22:01.166Z,96.40
2018-03-17T02:23:01.208Z,96.88
2018-03-17T02:24:00.997Z,96.88
2018-03-17T02:25:00.985Z,96.88
2018-03-17T02:26:00.831Z,96.69
2018-03-17T02:27:00.795Z,97.06
2018-03-17T02:28:00.676Z,96.78
2018-03-17T02:29:00.746Z,96.88
2018-03-17T02:30:00.492Z,97.44
2018-03-17T02:31:00.513Z,96.97
2018-03-17T02:32:00.353Z,96.21
2018-03-17T02:33:00.357Z,96.40
2018-03-17T02:34:00.150Z,96.31
2018-03-17T02:35:00.257Z,96.59
2018-03-17T02:35:59.982Z,96.97
2018-03-17T02:36:59.948Z,96.40
2018-03-17T02:37:59.865Z,97.25
2018-03-17T02:38:59.867Z,97.72
2018-03-17T02:40:00.167Z,96.97
2018-03-17T02:40:59.658Z,97.16
2018-03-17T02:41:59.478Z,96.59
2018-03-17T02:42:59.492Z,96.21
2018-03-17T02:43:59.322Z,96.21
2018-03-17T02:44:59.277Z,96.59
2018-03-17T02:45:59.143Z,96.59
2018-03-17T02:46:59.124Z,96.69
2018-03-17T02:47:58.973Z,96.21
2018-03-17T02:48:59.038Z,96.97
2018-03-17T02:49:58.815Z,96.59
2018-03-17T02:50:58.801Z,96.97
2018-03-17T02:51:58.649Z,96.69
2018-03-17T02:52:58.641Z,96.78
2018-03-17T02:53:58.502Z,97.72
2018-03-17T02:54:58.419Z,97.72
2018-03-17T02:55:58.307Z,96.78
2018-03-17T02:56:58.243Z,96.97
2018-03-17T02:57:58.153Z,96.88
2018-03-17T02:58:58.164Z,96.88
2018-03-17T02:59:57.965Z,96.97
2018-03-17T03:00:57.948Z,97.25
2018-03-17T03:01:57.809Z,98.29
2018-03-17T03:02:57.750Z,98.48
2018-03-17T03:03:57.659Z,99.05
2018-03-17T03:04:57.683Z,99.15
2018-03-17T03:05:57.460Z,99.52
2018-03-17T03:06:57.485Z,98.48
2018-03-17T03:07:57.292Z,98.10
2018-03-17T03:08:57.278Z,98.10
2018-03-17T03:09:57.158Z,97.53
2018-03-17T03:10:57.092Z,97.63
2018-03-17T03:11:56.955Z,97.34
2018-03-17T03:12:58.992Z,96.88
2018-03-17T03:13:56.792Z,96.78
2018-03-17T03:14:57.796Z,97.25
2018-03-17T03:15:56.636Z,98.01
2018-03-17T03:16:56.613Z,98.48
2018-03-17T03:17:56.448Z,98.20
2018-03-17T03:18:56.425Z,99.15
2018-03-17T03:19:56.278Z,98.96
2018-03-17T03:20:56.273Z,98.20
2018-03-17T03:21:56.131Z,98.20
2018-03-17T03:22:56.144Z,97.44
2018-03-17T03:23:55.946Z,97.44
2018-03-17T03:24:55.949Z,97.91
2018-03-17T03:25:55.845Z,98.48
2018-03-17T03:26:55.703Z,97.44
2018-03-17T03:27:55.624Z,98.20
2018-03-17T03:28:55.536Z,98.14
2018-03-17T03:29:55.435Z,97.53
2018-03-17T03:30:55.411Z,97.91
2018-03-17T03:31:55.264Z,97.44
2018-03-17T03:32:55.285Z,97.53
2018-03-17T03:33:55.104Z,97.53
2018-03-17T03:34:55.096Z,97.53
2018-03-17T03:35:54.964Z,96.50
2018-03-17T03:36:54.903Z,96.73
2018-03-17T03:37:54.768Z,96.92
2018-03-17T03:38:54.739Z,97.67
2018-03-17T03:39:54.594Z,96.83
2018-03-17T03:40:54.667Z,97.25
2018-03-17T03:41:54.468Z,97.53
2018-03-17T03:42:54.431Z,96.92
2018-03-17T03:43:54.257Z,96.69
2018-03-17T03:44:54.191Z,97.16
2018-03-17T03:45:54.086Z,96.78
2018-03-17T03:46:54.057Z,96.21
2018-03-17T03:47:53.939Z,96.50
2018-03-17T03:48:53.968Z,95.83
2018-03-17T03:49:53.751Z,96.21
2018-03-17T03:50:53.764Z,95.93
2018-03-17T03:51:53.607Z,96.31
2018-03-17T03:52:53.575Z,96.50
2018-03-17T03:53:53.417Z,95.83
2018-03-17T03:54:53.390Z,95.74
2018-03-17T03:55:53.253Z,96.31
2018-03-17T03:56:53.240Z,95.55
2018-03-17T03:57:53.117Z,95.17
2018-03-17T03:58:53.100Z,95.03
2018-03-17T03:59:52.912Z,95.45
2018-03-17T04:00:52.949Z,95.45
2018-03-17T04:01:52.759Z,95.74
2018-03-17T04:02:52.762Z,95.17
2018-03-17T04:03:52.578Z,95.55
2018-03-17T04:04:52.534Z,95.55
2018-03-17T04:05:52.408Z,94.51
2018-03-17T04:06:52.368Z,94.60
2018-03-17T04:07:52.263Z,94.60
2018-03-17T04:08:52.167Z,94.70
2018-03-17T04:09:52.074Z,94.27
2018-03-17T04:10:52.059Z,94.18
2018-03-17T04:11:51.899Z,94.37
2018-03-17T04:12:51.894Z,94.60
2018-03-17T04:13:51.737Z,94.79
2018-03-17T04:14:51.778Z,94.89
2018-03-17T04:15:51.569Z,94.13
2018-03-17T04:16:51.589Z,94.60
2018-03-17T04:17:51.493Z,94.51
2018-03-17T04:18:51.434Z,94.13
2018-03-17T04:19:51.222Z,94.04
2018-03-17T04:20:51.225Z,94.13
2018-03-17T04:21:51.052Z,93.80
2018-03-17T04:22:51.011Z,94.27
2018-03-17T04:23:50.891Z,94.04
2018-03-17T04:24:50.926Z,94.13
2018-03-17T04:25:50.727Z,94.60
2018-03-17T04:26:50.732Z,94.23
2018-03-17T04:27:50.574Z,93.94
2018-03-17T04:28:50.541Z,94.13
2018-03-17T04:29:50.382Z,94.42
2018-03-17T04:30:50.347Z,93.85
2018-03-17T04:31:50.219Z,94.04
2018-03-17T04:32:51.214Z,94.13
2018-03-17T04:33:50.040Z,94.04
2018-03-17T04:34:50.068Z,93.42
2018-03-17T04:35:49.887Z,93.32
2018-03-17T04:36:49.880Z,94.08
2018-03-17T04:37:49.723Z,94.79
2018-03-17T04:38:49.676Z,95.40
2018-03-17T04:39:49.548Z,95.64
2018-03-17T04:40:49.495Z,95.17
2018-03-17T04:41:49.395Z,94.60
2018-03-17T04:42:49.425Z,94.04
2018-03-17T04:43:49.199Z,94.84
2018-03-17T04:44:49.263Z,95.12
2018-03-17T04:45:49.029Z,94.74
2018-03-17T04:46:49.010Z,95.12
2018-03-17T04:47:48.865Z,94.84
2018-03-17T04:48:48.856Z,95.12
2018-03-17T04:49:48.704Z,95.59
2018-03-17T04:50:48.735Z,95.78
2018-03-17T04:51:48.525Z,96.26
2018-03-17T04:52:48.580Z,96.26
2018-03-17T04:53:48.382Z,96.35
2018-03-17T04:54:48.363Z,95.88
2018-03-17T04:55:48.185Z,96.16
2018-03-17T04:58:30.065Z,96.16
2018-03-17T04:59:30.102Z,96.07
2018-03-17T05:00:29.896Z,96.45
2018-03-17T05:01:29.980Z,97.11
2018-03-17T05:02:29.746Z,96.16
2018-03-17T05:03:30.318Z,96.35
2018-03-17T05:04:29.585Z,96.26
2018-03-17T05:05:29.592Z,96.07
2018-03-17T05:06:29.390Z,95.31
2018-03-17T05:07:29.396Z,95.88
2018-03-17T05:08:29.222Z,96.16
2018-03-17T05:09:29.231Z,95.97
2018-03-17T05:10:29.052Z,96.26
2018-03-17T05:11:29.009Z,96.26
2018-03-17T05:12:28.906Z,96.35
2018-03-17T05:13:28.917Z,95.12
2018-03-17T05:14:28.748Z,95.59
2018-03-17T05:15:28.742Z,95.59
2018-03-17T05:16:28.586Z,95.59
2018-03-17T05:17:28.535Z,95.50
2018-03-17T05:18:28.376Z,95.78
2018-03-17T05:19:28.374Z,95.31
2018-03-17T05:20:28.217Z,95.21
2018-03-17T05:21:28.143Z,95.50
2018-03-17T05:22:28.110Z,95.50
2018-03-17T05:23:28.072Z,95.31
2018-03-17T05:24:27.894Z,95.88
2018-03-17T05:25:27.977Z,96.26
2018-03-17T05:26:27.708Z,96.35
2018-03-17T05:27:27.693Z,95.88
2018-03-17T05:28:27.526Z,96.16
2018-03-17T05:29:27.521Z,96.45
2018-03-17T05:30:27.361Z,96.35
2018-03-17T05:31:27.398Z,95.78
2018-03-17T05:32:27.197Z,96.45
2018-03-17T05:33:27.207Z,96.16
2018-03-17T05:34:27.027Z,96.07
2018-03-17T05:35:27.051Z,95.31
2018-03-17T05:36:26.869Z,95.40
2018-03-17T05:37:26.824Z,95.59
2018-03-17T05:38:26.682Z,95.03
2018-03-17T05:39:26.646Z,95.59
2018-03-17T05:40:26.542Z,95.50
2018-03-17T05:41:26.554Z,95.03
2018-03-17T05:42:26.349Z,94.93
2018-03-17T05:43:26.354Z,95.03
2018-03-17T05:44:26.179Z,95.59
2018-03-17T05:45:26.206Z,95.40
2018-03-17T05:46:26.010Z,95.50
2018-03-17T05:47:25.972Z,94.74
2018-03-17T05:48:25.836Z,95.78
2018-03-17T05:49:25.879Z,96.35
2018-03-17T05:50:25.695Z,96.16
2018-03-17T05:51:25.686Z,96.26
2018-03-17T05:52:25.510Z,96.45
2018-03-17T05:53:25.493Z,96.54
2018-03-17T05:54:25.335Z,95.59
2018-03-17T05:55:25.439Z,95.31
2018-03-17T05:56:25.173Z,95.40
2018-03-17T05:57:25.113Z,96.07
2018-03-17T05:58:25.010Z,97.49
2018-03-17T05:59:25.020Z,96.73
2018-03-17T06:00:24.826Z,95.40
2018-03-17T06:01:24.867Z,94.65
2018-03-17T06:02:24.650Z,94.65
2018-03-17T06:03:24.638Z,94.65
2018-03-17T06:04:24.486Z,95.31
2018-03-17T06:05:24.451Z,94.65
2018-03-17T06:06:24.348Z,94.93
2018-03-17T06:07:24.375Z,94.18
2018-03-17T06:08:24.148Z,94.46
2018-03-17T06:09:24.164Z,94.74
2018-03-17T06:10:23.985Z,94.46
2018-03-17T06:11:24.006Z,94.46
2018-03-17T06:12:23.818Z,93.42
2018-03-17T06:13:23.789Z,93.42
2018-03-17T06:14:23.635Z,93.80
2018-03-17T06:15:23.595Z,93.99
2018-03-17T06:16:23.510Z,94.08
2018-03-17T06:17:23.443Z,93.99
2018-03-17T06:18:23.299Z,93.32
2018-03-17T06:19:23.314Z,92.66
2018-03-17T06:20:23.131Z,91.91
2018-03-17T06:21:23.119Z,92.66
2018-03-17T06:22:22.996Z,92.76
2018-03-17T06:23:22.930Z,93.13
2018-03-17T06:24:22.791Z,92.66
2018-03-17T06:25:22.839Z,92.19
2018-03-17T06:26:22.624Z,92.76
2018-03-17T06:27:22.688Z,92.57
2018-03-17T06:28:22.453Z,92.66
2018-03-17T06:29:22.457Z,93.04
2018-03-17T06:30:22.294Z,92.94
2018-03-17T06:31:22.273Z,93.13
2018-03-17T06:32:22.147Z,92.76
2018-03-17T06:33:22.103Z,92.57
2018-03-17T06:34:21.947Z,92.47
2018-03-17T06:35:21.985Z,92.66
2018-03-17T06:36:21.773Z,92.76
2018-03-17T06:37:21.786Z,92.19
2018-03-17T06:38:21.636Z,92.19
2018-03-17T06:39:21.602Z,91.91
2018-03-17T06:40:21.436Z,93.23
2018-03-17T06:41:21.415Z,92.94
2018-03-17T06:42:21.268Z,92.57
2018-03-17T06:43:21.245Z,92.29
2018-03-17T06:44:21.107Z,93.13
2018-03-17T06:45:21.134Z,93.42
2018-03-17T06:46:20.923Z,93.04
2018-03-17T06:47:20.943Z,92.85
2018-03-17T06:48:20.782Z,92.76
2018-03-17T06:49:20.760Z,92.94
2018-03-17T06:50:20.592Z,92.10
2018-03-17T06:51:20.560Z,91.91
2018-03-17T06:52:20.419Z,91.91
2018-03-17T06:53:20.392Z,92.94
2018-03-17T06:54:20.260Z,92.57
2018-03-17T06:55:20.281Z,92.19
2018-03-17T06:56:20.088Z,92.47
2018-03-17T06:57:20.087Z,91.24
2018-03-17T06:58:19.933Z,92.10
2018-03-17T06:59:19.921Z,92.66
2018-03-17T07:00:19.749Z,92.00
2018-03-17T07:01:19.701Z,92.47
2018-03-17T07:02:19.572Z,92.85
2018-03-17T07:03:19.668Z,92.38
2018-03-17T07:04:19.407Z,92.94
2018-03-17T07:05:19.420Z,93.13
2018-03-17T07:06:19.248Z,93.04
2018-03-17T07:07:19.170Z,93.70
2018-03-17T07:08:19.069Z,93.42
2018-03-17T07:09:19.058Z,93.32
2018-03-17T07:10:18.906Z,93.32
2018-03-17T07:11:18.841Z,93.42
2018-03-17T07:12:18.787Z,93.42
2018-03-17T07:13:18.759Z,93.80
2018-03-17T07:14:18.586Z,95.69
2018-03-17T07:15:18.622Z,93.70
2018-03-17T07:16:18.412Z,93.42
2018-03-17T07:17:18.377Z,93.04
2018-03-17T07:18:18.239Z,92.85
2018-03-17T07:19:18.179Z,93.04
2018-03-17T07:20:18.084Z,93.99
2018-03-17T07:21:18.086Z,93.70
2018-03-17T07:22:17.874Z,92.94
2018-03-17T07:25:00.098Z,94.37
2018-03-17T07:26:00.137Z,94.27
2018-03-17T07:26:59.903Z,94.74
2018-03-17T07:27:59.930Z,93.80
2018-03-17T07:28:59.752Z,92.76
2018-03-17T07:29:59.713Z,92.94
2018-03-17T07:30:59.588Z,93.23
2018-03-17T07:31:59.522Z,93.23
2018-03-17T07:32:59.416Z,94.27
2018-03-17T07:33:59.440Z,93.42
2018-03-17T07:34:59.239Z,93.51
2018-03-17T07:35:59.328Z,94.56
2018-03-17T07:36:59.071Z,93.99
2018-03-17T07:37:59.054Z,94.70
2018-03-17T07:38:58.886Z,93.47
2018-03-17T07:39:58.867Z,92.24
2018-03-17T07:40:58.736Z,91.43
2018-03-17T07:41:58.694Z,92.10
2018-03-17T07:42:58.550Z,92.10
2018-03-17T07:43:58.582Z,92.66
2018-03-17T07:44:59.254Z,92.10
2018-03-17T07:45:58.390Z,93.04
2018-03-17T07:46:58.710Z,92.85
2018-03-17T07:47:58.202Z,92.00
2018-03-17T07:48:58.050Z,93.04
2018-03-17T07:49:58.013Z,92.10
2018-03-17T07:50:57.869Z,93.13
2018-03-17T07:51:57.858Z,91.96
2018-03-17T07:52:57.717Z,92.33
2018-03-17T07:53:57.737Z,91.43
2018-03-17T07:54:57.532Z,91.58
2018-03-17T07:55:57.606Z,91.58
2018-03-17T07:56:57.399Z,91.77
2018-03-17T07:57:57.345Z,90.34
2018-03-17T07:58:57.214Z,90.58
2018-03-17T07:59:57.148Z,90.72
2018-03-17T08:00:57.060Z,90.16
2018-03-17T08:01:57.118Z,90.20
2018-03-17T08:02:56.904Z,90.58
2018-03-17T08:03:56.883Z,90.49
2018-03-17T08:04:56.692Z,90.49
2018-03-17T08:05:56.689Z,91.34
2018-03-17T08:06:56.512Z,91.43
2018-03-17T08:07:56.527Z,92.90
2018-03-17T08:08:56.399Z,93.23
2018-03-17T08:09:56.393Z,92.85
2018-03-17T08:10:56.184Z,92.29
2018-03-17T08:11:56.210Z,92.57
2018-03-17T08:12:56.056Z,92.80
2018-03-17T08:13:56.032Z,90.49
2018-03-17T08:14:55.934Z,90.68
2018-03-17T08:15:55.828Z,90.68
2018-03-17T08:16:55.668Z,91.53
2018-03-17T08:17:55.676Z,91.34
2018-03-17T08:18:55.597Z,91.91
2018-03-17T08:19:55.539Z,91.81
2018-03-17T08:20:55.349Z,91.53
2018-03-17T08:21:55.354Z,91.53
2018-03-17T08:22:55.202Z,90.39
2018-03-17T08:23:55.155Z,91.43
2018-03-17T08:24:55.009Z,90.39
2018-03-17T08:25:55.002Z,91.24
2018-03-17T08:26:54.835Z,91.72
2018-03-17T08:27:54.799Z,91.72
2018-03-17T08:28:54.698Z,92.10
2018-03-17T08:29:54.686Z,92.43
2018-03-17T08:30:54.495Z,91.67
2018-03-17T08:31:54.546Z,91.39
2018-03-17T08:32:54.321Z,90.58
2018-03-17T08:33:54.345Z,90.68
2018-03-17T08:34:54.159Z,91.53
2018-03-17T08:35:54.114Z,92.94
2018-03-17T08:36:53.975Z,92.94
2018-03-17T08:37:54.031Z,92.76
2018-03-17T08:38:53.825Z,92.19
2018-03-17T08:39:53.843Z,92.19
2018-03-17T08:40:53.647Z,92.71
2018-03-17T08:41:53.638Z,92.90
2018-03-17T08:42:53.471Z,93.42
2018-03-17T08:43:53.707Z,93.61
2018-03-17T08:44:53.449Z,93.23
2018-03-17T08:45:53.799Z,93.32
2018-03-17T08:46:53.146Z,92.66
2018-03-17T08:47:53.180Z,92.85
2018-03-17T08:48:52.967Z,93.13
2018-03-17T08:49:53.001Z,93.23
2018-03-17T08:50:52.800Z,93.04
2018-03-17T08:51:52.783Z,92.94
2018-03-17T08:52:52.653Z,93.04
2018-03-17T08:55:46.125Z,93.13
2018-03-17T08:56:46.782Z,93.04
2018-03-17T08:57:45.916Z,93.42
2018-03-17T08:58:45.900Z,93.04
2018-03-17T08:59:45.815Z,92.76
2018-03-17T09:02:27.579Z,92.19
2018-03-17T09:03:48.478Z,92.29
2018-03-17T09:04:27.444Z,91.91
2018-03-17T09:05:27.409Z,92.85
2018-03-17T09:06:27.305Z,93.32
2018-03-17T09:07:27.298Z,92.94
2018-03-17T09:08:27.102Z,92.76
2018-03-17T09:09:27.136Z,92.10
2018-03-17T09:10:27.033Z,92.66
2018-03-17T09:11:26.906Z,92.57
2018-03-17T09:12:26.738Z,92.85
2018-03-17T09:13:26.810Z,92.05
2018-03-17T09:14:26.581Z,93.04
2018-03-17T09:15:26.514Z,92.05
2018-03-17T09:16:26.428Z,92.47
2018-03-17T09:17:26.431Z,92.57
2018-03-17T09:18:26.239Z,93.13
2018-03-17T09:19:26.236Z,92.19
2018-03-17T09:20:26.084Z,91.91
2018-03-17T09:21:26.049Z,92.00
2018-03-17T09:22:25.908Z,93.04
2018-03-17T09:23:25.855Z,93.04
2018-03-17T09:24:25.727Z,92.94
2018-03-17T09:25:25.708Z,92.43
2018-03-17T09:29:17.202Z,92.43
2018-03-17T09:30:17.020Z,93.42
2018-03-17T09:31:17.109Z,94.18
2018-03-17T09:32:16.850Z,92.38
2018-03-17T09:33:16.815Z,93.04
2018-03-17T09:34:16.671Z,92.10
2018-03-17T09:35:16.624Z,92.00
2018-03-17T09:36:16.546Z,92.85
2018-03-17T09:37:16.535Z,92.10
2018-03-17T09:38:16.326Z,91.29
2018-03-17T09:39:16.351Z,91.72
2018-03-17T09:40:16.157Z,91.10
2018-03-17T09:41:16.184Z,91.58
2018-03-17T09:42:16.005Z,91.67
2018-03-17T09:43:15.981Z,92.61
2018-03-17T09:44:15.824Z,92.66
2018-03-17T09:45:15.864Z,91.91
2018-03-17T09:46:15.671Z,91.24
2018-03-17T09:47:15.685Z,92.85
2018-03-17T09:48:16.150Z,91.81
2018-03-17T09:49:15.487Z,91.72
2018-03-17T09:50:15.339Z,92.38
2018-03-17T09:51:16.163Z,90.49
2018-03-17T09:52:15.162Z,90.68
2018-03-17T09:53:15.154Z,90.58
2018-03-17T09:54:14.978Z,90.82
2018-03-17T09:55:15.025Z,90.63
2018-03-17T09:56:14.871Z,91.67
2018-03-17T09:57:14.816Z,91.01
2018-03-17T09:58:14.689Z,92.00
2018-03-17T09:59:14.628Z,92.19
2018-03-17T10:00:14.472Z,93.04
2018-03-17T10:01:14.435Z,92.47
2018-03-17T10:02:14.340Z,92.19
2018-03-17T10:03:14.287Z,91.53
2018-03-17T10:04:14.154Z,91.53
2018-03-17T10:05:14.152Z,91.58
2018-03-17T10:06:13.968Z,91.91
2018-03-17T10:07:13.988Z,92.66
2018-03-17T10:08:13.790Z,91.53
2018-03-17T10:09:13.816Z,91.39
2018-03-17T10:10:13.632Z,91.29
2018-03-17T10:11:13.592Z,91.53
2018-03-17T10:12:13.467Z,92.24
2018-03-17T10:13:13.435Z,92.14
2018-03-17T10:14:13.297Z,92.66
2018-03-17T10:15:13.312Z,91.86
2018-03-17T10:16:13.113Z,92.24
2018-03-17T10:17:13.111Z,91.48
2018-03-17T10:18:13.088Z,91.20
2018-03-17T10:19:12.913Z,91.48
2018-03-17T10:20:12.787Z,92.05
2018-03-17T10:21:12.867Z,91.86
2018-03-17T10:22:12.616Z,92.05
2018-03-17T10:23:12.913Z,91.81
2018-03-17T10:24:12.489Z,91.10
2018-03-17T10:25:12.467Z,91.01
2018-03-17T10:26:12.328Z,91.67
2018-03-17T10:27:12.295Z,92.61
2018-03-17T10:28:12.241Z,93.66
2018-03-17T10:29:12.231Z,94.98
2018-03-17T10:30:11.970Z,93.99
2018-03-17T10:31:11.980Z,92.85
2018-03-17T10:32:11.800Z,92.66
2018-03-17T10:34:55.118Z,91.10
2018-03-17T10:35:53.602Z,91.58
2018-03-17T10:36:53.433Z,91.39
2018-03-17T10:37:53.401Z,90.54
2018-03-17T10:38:53.301Z,90.58
2018-03-17T10:39:53.250Z,91.48
2018-03-17T10:40:53.556Z,90.49
2018-03-17T10:41:53.375Z,91.05
2018-03-17T10:42:52.921Z,90.82
2018-03-17T10:43:52.928Z,90.39
2018-03-17T10:44:52.789Z,90.58
2018-03-17T10:45:52.720Z,90.77
2018-03-17T10:46:52.584Z,90.68
2018-03-17T10:47:52.589Z,90.39
2018-03-17T10:48:52.410Z,90.16
2018-03-17T10:49:52.434Z,90.82
2018-03-17T10:50:52.255Z,91.72
2018-03-17T10:53:34.094Z,90.58
2018-03-17T10:54:34.141Z,90.35
2018-03-17T10:55:33.967Z,90.06
2018-03-17T10:56:33.945Z,91.62
2018-03-17T10:57:33.752Z,90.86
2018-03-17T10:58:33.862Z,90.11
2018-03-17T10:59:33.605Z,90.63
2018-03-17T11:00:34.535Z,90.44
2018-03-17T11:01:33.517Z,90.25
2018-03-17T11:02:33.387Z,90.63
2018-03-17T11:03:35.182Z,91.39
2018-03-17T11:04:33.288Z,90.35
2018-03-17T11:05:33.091Z,90.91
2018-03-17T11:06:33.212Z,91.53
2018-03-17T11:08:58.118Z,90.11
2018-03-17T11:10:25.133Z,90.39
2018-03-17T11:11:04.853Z,89.73
2018-03-17T11:11:57.494Z,89.36
2018-03-17T11:12:58.284Z,89.73
2018-03-17T11:13:57.385Z,89.17
2018-03-17T11:14:57.091Z,89.92
2018-03-17T11:15:57.108Z,89.45
2018-03-17T11:16:56.959Z,89.45
2018-03-17T11:17:56.917Z,89.73
2018-03-17T11:18:56.747Z,89.64
2018-03-17T11:19:56.731Z,88.60
2018-03-17T11:20:56.572Z,88.50
2018-03-17T11:21:56.601Z,88.79
2018-03-17T11:22:56.477Z,88.69
2018-03-17T11:23:56.449Z,88.65
2018-03-17T11:24:56.239Z,89.54
2018-03-17T11:25:56.252Z,90.01
2018-03-17T11:26:56.112Z,89.07
2018-03-17T11:27:56.062Z,89.73
2018-03-17T11:28:55.903Z,88.60
2018-03-17T11:29:55.871Z,88.79
2018-03-17T11:30:55.734Z,87.65
2018-03-17T11:31:55.725Z,88.60
2018-03-17T11:32:55.582Z,88.31
2018-03-17T11:33:55.629Z,88.22
2018-03-17T11:34:55.394Z,87.08
2018-03-17T11:35:55.407Z,86.80
2018-03-17T11:36:55.297Z,86.42
2018-03-17T11:37:55.206Z,87.18
2018-03-17T11:38:55.133Z,87.42
2018-03-17T11:39:55.018Z,86.90
2018-03-17T11:40:54.883Z,87.55
2018-03-17T11:41:54.924Z,87.65
2018-03-17T11:42:54.749Z,87.27
2018-03-17T11:43:54.754Z,86.80
2018-03-17T11:44:54.552Z,86.33
2018-03-17T11:45:54.550Z,85.85
2018-03-17T11:46:54.386Z,85.24
2018-03-17T11:47:54.376Z,85.62
2018-03-17T11:48:54.738Z,86.42
2018-03-17T11:49:54.268Z,85.38
2018-03-17T11:50:54.057Z,85.19
2018-03-17T11:51:54.080Z,85.28
2018-03-17T11:52:53.920Z,84.77
2018-03-17T11:53:53.903Z,85.10
2018-03-17T11:54:53.691Z,84.91
2018-03-17T11:55:53.695Z,85.10
2018-03-17T11:56:53.546Z,84.53
2018-03-17T11:57:53.540Z,84.06
2018-03-17T11:58:53.391Z,83.68
2018-03-17T11:59:53.406Z,83.49
2018-03-17T12:00:53.189Z,81.88
2018-03-17T12:01:53.211Z,82.17
2018-03-17T12:02:53.065Z,81.79
2018-03-17T12:03:53.052Z,81.79
2018-03-17T12:04:52.855Z,81.51
2018-03-17T12:05:52.931Z,83.21
2018-03-17T12:06:52.703Z,82.83
2018-03-17T12:07:52.856Z,83.82
2018-03-17T12:08:52.534Z,81.93
2018-03-17T12:09:52.562Z,81.60
2018-03-17T12:10:52.356Z,82.17
2018-03-17T12:11:52.387Z,82.21
2018-03-17T12:12:52.191Z,81.79
2018-03-17T12:13:52.198Z,82.97
2018-03-17T12:14:52.026Z,82.21
2018-03-17T12:15:51.977Z,81.74
2018-03-17T12:16:51.853Z,83.06
2018-03-17T12:17:51.899Z,83.44
2018-03-17T12:18:51.688Z,81.22
2018-03-17T12:19:51.767Z,80.37
2018-03-17T12:20:51.529Z,81.98
2018-03-17T12:21:51.504Z,82.26
2018-03-17T12:22:51.437Z,82.83
2018-03-17T12:23:51.311Z,82.17
2018-03-17T12:24:51.206Z,83.11
2018-03-17T12:25:51.122Z,82.26
2018-03-17T12:26:51.029Z,82.83
2018-03-17T12:27:51.038Z,83.87
2018-03-17T12:28:50.842Z,82.83
2018-03-17T12:29:50.848Z,83.68
2018-03-17T12:30:50.685Z,82.92
2018-03-17T12:31:50.651Z,83.49
2018-03-17T12:32:50.500Z,82.17
2018-03-17T12:33:50.458Z,82.26
2018-03-17T12:34:50.328Z,81.60
2018-03-17T12:35:50.293Z,81.98
2018-03-17T12:36:50.154Z,81.32
2018-03-17T12:37:50.181Z,81.98
2018-03-17T12:38:49.999Z,83.91
2018-03-17T12:39:49.994Z,82.87
2018-03-17T12:40:49.835Z,81.55
2018-03-17T12:41:49.796Z,80.27
2018-03-17T12:42:49.650Z,79.71
2018-03-17T12:43:49.712Z,80.56
2018-03-17T12:44:49.539Z,80.18
2018-03-17T12:45:49.553Z,79.43
2018-03-17T12:46:49.318Z,80.27
2018-03-17T12:47:49.348Z,79.43
2018-03-17T12:48:49.162Z,79.33
2018-03-17T12:49:49.148Z,78.67
2018-03-17T12:50:48.992Z,79.43
2018-03-17T12:51:48.967Z,79.71
2018-03-17T12:52:48.834Z,79.43
2018-03-17T12:53:48.847Z,80.08
2018-03-17T12:54:48.646Z,79.56
2018-03-17T12:55:48.769Z,78.71
2018-03-17T12:56:48.486Z,77.63
2018-03-17T12:57:49.192Z,76.87
2018-03-17T12:58:48.348Z,76.87
2018-03-17T12:59:48.271Z,77.53
2018-03-17T13:00:48.173Z,78.76
2018-03-17T13:01:48.082Z,79.33
2018-03-17T13:02:47.978Z,79.43
2018-03-17T13:03:48.041Z,79.33
2018-03-17T13:04:47.799Z,79.33
2018-03-17T13:05:47.799Z,79.24